sensor_id;sensor_type;location;lat;lon;timestamp;temperature;humidity
5392;DHT22;2719;53.624;9.786;2023-11-18T00:01:40;6.60;99.90
5392;DHT22;2719;53.624;9.786;2023-11-18T00:04:07;6.60;99.90
5392;DHT22;2719;53.624;9.786;2023-11-18T00:06:40;6.70;99.90
5392;DHT22;2719;53.624;9.786;2023-11-18T00:09:10;6.70;99.90
5392;DHT22;2719;53.624;9.786;2023-11-18T00:11:40;6.70;99.90
5392;DHT22;2719;53.624;9.786;2023-11-18T00:14:07;6.70;99.90
5392;DHT22;2719;53.624;9.786;2023-11-18T00:16:35;6.70;99.90
5392;DHT22;2719;53.624;9.786;2023-11-18T00:19:02;6.80;99.90
5392;DHT22;2719;53.624;9.786;2023-11-18T00:21:30;6.80;99.90
5392;DHT22;2719;53.624;9.786;2023-11-18T00:23:57;6.80;99.90
5392;DHT22;2719;53.624;9.786;2023-11-18T00:26:25;6.80;99.90
5392;DHT22;2719;53.624;9.786;2023-11-18T00:28:52;6.70;99.90
5392;DHT22;2719;53.624;9.786;2023-11-18T00:31:18;6.70;99.90
5392;DHT22;2719;53.624;9.786;2023-11-18T00:33:45;6.70;99.90
5392;DHT22;2719;53.624;9.786;2023-11-18T00:36:11;6.70;99.90
5392;DHT22;2719;53.624;9.786;2023-11-18T00:38:38;6.70;99.90
5392;DHT22;2719;53.624;9.786;2023-11-18T00:41:06;6.80;99.90
5392;DHT22;2719;53.624;9.786;2023-11-18T00:43:34;6.80;99.90
5392;DHT22;2719;53.624;9.786;2023-11-18T00:46:01;6.80;99.90
5392;DHT22;2719;53.624;9.786;2023-11-18T00:48:29;6.80;99.90
5392;DHT22;2719;53.624;9.786;2023-11-18T00:50:56;6.90;99.90
5392;DHT22;2719;53.624;9.786;2023-11-18T00:53:23;6.90;99.90
5392;DHT22;2719;53.624;9.786;2023-11-18T00:55:49;6.90;99.90
5392;DHT22;2719;53.624;9.786;2023-11-18T00:58:16;6.90;99.90
5392;DHT22;2719;53.624;9.786;2023-11-18T01:00:44;6.90;99.90
5392;DHT22;2719;53.624;9.786;2023-11-18T01:03:11;7.00;99.90
5392;DHT22;2719;53.624;9.786;2023-11-18T01:05:37;7.00;99.90
5392;DHT22;2719;53.624;9.786;2023-11-18T01:08:04;6.90;99.90
5392;DHT22;2719;53.624;9.786;2023-11-18T01:10:31;6.70;99.90
5392;DHT22;2719;53.624;9.786;2023-11-18T01:12:58;6.60;99.90
5392;DHT22;2719;53.624;9.786;2023-11-18T01:15:25;6.60;99.90
5392;DHT22;2719;53.624;9.786;2023-11-18T01:17:52;6.60;99.90
5392;DHT22;2719;53.624;9.786;2023-11-18T01:20:19;6.60;99.90
5392;DHT22;2719;53.624;9.786;2023-11-18T01:22:47;6.70;99.90
5392;DHT22;2719;53.624;9.786;2023-11-18T01:25:14;6.70;99.90
5392;DHT22;2719;53.624;9.786;2023-11-18T01:27:42;6.70;99.90
5392;DHT22;2719;53.624;9.786;2023-11-18T01:30:12;6.70;99.90
5392;DHT22;2719;53.624;9.786;2023-11-18T01:32:39;6.80;99.90
5392;DHT22;2719;53.624;9.786;2023-11-18T01:35:08;6.80;99.90
5392;DHT22;2719;53.624;9.786;2023-11-18T01:37:36;6.70;99.90
5392;DHT22;2719;53.624;9.786;2023-11-18T01:40:03;6.60;99.90
5392;DHT22;2719;53.624;9.786;2023-11-18T01:42:32;6.50;99.90
5392;DHT22;2719;53.624;9.786;2023-11-18T01:44:59;6.60;99.90
5392;DHT22;2719;53.624;9.786;2023-11-18T01:47:29;6.50;99.90
5392;DHT22;2719;53.624;9.786;2023-11-18T01:49:58;6.50;99.90
5392;DHT22;2719;53.624;9.786;2023-11-18T01:52:26;6.50;99.90
5392;DHT22;2719;53.624;9.786;2023-11-18T01:54:55;6.50;99.90
5392;DHT22;2719;53.624;9.786;2023-11-18T01:57:22;6.50;99.90
5392;DHT22;2719;53.624;9.786;2023-11-18T01:59:49;6.40;99.90
5392;DHT22;2719;53.624;9.786;2023-11-18T02:02:16;6.40;99.90
5392;DHT22;2719;53.624;9.786;2023-11-18T02:04:43;6.50;99.90
5392;DHT22;2719;53.624;9.786;2023-11-18T02:07:10;6.40;99.90
5392;DHT22;2719;53.624;9.786;2023-11-18T02:09:42;6.40;99.90
5392;DHT22;2719;53.624;9.786;2023-11-18T02:12:16;6.30;99.90
5392;DHT22;2719;53.624;9.786;2023-11-18T02:14:46;6.20;99.90
5392;DHT22;2719;53.624;9.786;2023-11-18T02:17:14;6.10;99.90
5392;DHT22;2719;53.624;9.786;2023-11-18T02:19:44;6.10;99.90
5392;DHT22;2719;53.624;9.786;2023-11-18T02:22:11;6.00;99.90
5392;DHT22;2719;53.624;9.786;2023-11-18T02:24:40;5.80;99.90
5392;DHT22;2719;53.624;9.786;2023-11-18T02:27:09;5.90;99.90
5392;DHT22;2719;53.624;9.786;2023-11-18T02:29:38;5.90;99.90
5392;DHT22;2719;53.624;9.786;2023-11-18T02:32:13;6.00;99.90
5392;DHT22;2719;53.624;9.786;2023-11-18T02:34:48;6.10;99.90
5392;DHT22;2719;53.624;9.786;2023-11-18T02:37:17;5.90;99.90
5392;DHT22;2719;53.624;9.786;2023-11-18T02:39:45;5.80;99.90
5392;DHT22;2719;53.624;9.786;2023-11-18T02:42:17;5.90;99.90
5392;DHT22;2719;53.624;9.786;2023-11-18T02:44:47;5.90;99.90
5392;DHT22;2719;53.624;9.786;2023-11-18T02:47:15;5.90;99.90
5392;DHT22;2719;53.624;9.786;2023-11-18T02:49:42;5.90;99.90
5392;DHT22;2719;53.624;9.786;2023-11-18T02:52:09;5.80;99.90
5392;DHT22;2719;53.624;9.786;2023-11-18T02:54:36;5.70;99.90
5392;DHT22;2719;53.624;9.786;2023-11-18T02:57:03;5.70;99.90
5392;DHT22;2719;53.624;9.786;2023-11-18T02:59:31;5.50;99.90
5392;DHT22;2719;53.624;9.786;2023-11-18T03:01:58;5.60;99.90
5392;DHT22;2719;53.624;9.786;2023-11-18T03:04:26;5.50;99.90
5392;DHT22;2719;53.624;9.786;2023-11-18T03:06:53;5.40;99.90
5392;DHT22;2719;53.624;9.786;2023-11-18T03:09:21;5.30;99.90
5392;DHT22;2719;53.624;9.786;2023-11-18T03:11:47;5.40;99.90
5392;DHT22;2719;53.624;9.786;2023-11-18T03:14:16;5.30;99.90
5392;DHT22;2719;53.624;9.786;2023-11-18T03:16:46;5.30;99.90
5392;DHT22;2719;53.624;9.786;2023-11-18T03:19:13;5.40;99.90
5392;DHT22;2719;53.624;9.786;2023-11-18T03:21:39;5.40;99.90
5392;DHT22;2719;53.624;9.786;2023-11-18T03:24:07;5.40;99.90
5392;DHT22;2719;53.624;9.786;2023-11-18T03:26:34;5.50;99.90
5392;DHT22;2719;53.624;9.786;2023-11-18T03:29:01;5.60;99.90
5392;DHT22;2719;53.624;9.786;2023-11-18T03:31:28;5.50;99.90
5392;DHT22;2719;53.624;9.786;2023-11-18T03:33:56;5.50;99.90
5392;DHT22;2719;53.624;9.786;2023-11-18T03:36:23;5.50;99.90
5392;DHT22;2719;53.624;9.786;2023-11-18T03:38:49;5.50;99.90
5392;DHT22;2719;53.624;9.786;2023-11-18T03:41:16;5.50;99.90
5392;DHT22;2719;53.624;9.786;2023-11-18T03:43:43;5.60;99.90
5392;DHT22;2719;53.624;9.786;2023-11-18T03:46:09;5.70;99.90
5392;DHT22;2719;53.624;9.786;2023-11-18T03:48:36;5.80;99.90
5392;DHT22;2719;53.624;9.786;2023-11-18T03:51:04;5.90;99.90
5392;DHT22;2719;53.624;9.786;2023-11-18T03:53:31;5.90;99.90
5392;DHT22;2719;53.624;9.786;2023-11-18T03:55:59;6.00;99.90
5392;DHT22;2719;53.624;9.786;2023-11-18T03:58:25;6.00;99.90
5392;DHT22;2719;53.624;9.786;2023-11-18T04:00:52;6.00;99.90
5392;DHT22;2719;53.624;9.786;2023-11-18T04:03:19;6.10;99.90
5392;DHT22;2719;53.624;9.786;2023-11-18T04:05:46;6.10;99.90
5392;DHT22;2719;53.624;9.786;2023-11-18T04:08:14;6.20;99.90
5392;DHT22;2719;53.624;9.786;2023-11-18T04:10:41;6.20;99.90
5392;DHT22;2719;53.624;9.786;2023-11-18T04:13:07;6.20;99.90
5392;DHT22;2719;53.624;9.786;2023-11-18T04:15:34;6.20;99.90
5392;DHT22;2719;53.624;9.786;2023-11-18T04:18:01;6.10;99.90
5392;DHT22;2719;53.624;9.786;2023-11-18T04:20:28;6.20;99.90
5392;DHT22;2719;53.624;9.786;2023-11-18T04:22:54;6.20;99.90
5392;DHT22;2719;53.624;9.786;2023-11-18T04:25:23;6.20;99.90
5392;DHT22;2719;53.624;9.786;2023-11-18T04:27:50;6.20;99.90
5392;DHT22;2719;53.624;9.786;2023-11-18T04:30:17;6.20;99.90
5392;DHT22;2719;53.624;9.786;2023-11-18T04:32:44;6.20;99.90
5392;DHT22;2719;53.624;9.786;2023-11-18T04:35:10;6.10;99.90
5392;DHT22;2719;53.624;9.786;2023-11-18T04:37:37;5.90;99.90
5392;DHT22;2719;53.624;9.786;2023-11-18T04:40:08;5.80;99.90
5392;DHT22;2719;53.624;9.786;2023-11-18T04:42:38;5.70;99.90
5392;DHT22;2719;53.624;9.786;2023-11-18T04:45:05;5.60;99.90
5392;DHT22;2719;53.624;9.786;2023-11-18T04:47:34;5.50;99.90
5392;DHT22;2719;53.624;9.786;2023-11-18T04:50:01;5.40;99.90
5392;DHT22;2719;53.624;9.786;2023-11-18T04:52:29;5.50;99.90
5392;DHT22;2719;53.624;9.786;2023-11-18T04:54:57;5.40;99.90
5392;DHT22;2719;53.624;9.786;2023-11-18T04:57:25;5.40;99.90
5392;DHT22;2719;53.624;9.786;2023-11-18T04:59:53;5.40;99.90
5392;DHT22;2719;53.624;9.786;2023-11-18T05:02:20;5.40;99.90
5392;DHT22;2719;53.624;9.786;2023-11-18T05:04:47;5.40;99.90
5392;DHT22;2719;53.624;9.786;2023-11-18T05:07:14;5.40;99.90
5392;DHT22;2719;53.624;9.786;2023-11-18T05:09:41;5.40;99.90
5392;DHT22;2719;53.624;9.786;2023-11-18T05:12:07;5.40;99.90
5392;DHT22;2719;53.624;9.786;2023-11-18T05:14:35;5.60;99.90
5392;DHT22;2719;53.624;9.786;2023-11-18T05:17:03;5.60;99.90
5392;DHT22;2719;53.624;9.786;2023-11-18T05:19:30;5.70;99.90
5392;DHT22;2719;53.624;9.786;2023-11-18T05:21:56;5.70;99.90
5392;DHT22;2719;53.624;9.786;2023-11-18T05:24:25;5.70;99.90
5392;DHT22;2719;53.624;9.786;2023-11-18T05:26:52;5.80;99.90
5392;DHT22;2719;53.624;9.786;2023-11-18T05:29:19;5.80;99.90
5392;DHT22;2719;53.624;9.786;2023-11-18T05:31:46;5.80;99.90
5392;DHT22;2719;53.624;9.786;2023-11-18T05:34:14;5.70;99.90
5392;DHT22;2719;53.624;9.786;2023-11-18T05:36:41;5.80;99.90
5392;DHT22;2719;53.624;9.786;2023-11-18T05:39:07;5.80;99.90
5392;DHT22;2719;53.624;9.786;2023-11-18T05:41:34;5.80;99.90
5392;DHT22;2719;53.624;9.786;2023-11-18T05:44:05;5.90;99.90
5392;DHT22;2719;53.624;9.786;2023-11-18T05:46:34;5.80;99.90
5392;DHT22;2719;53.624;9.786;2023-11-18T05:49:02;5.80;99.90
5392;DHT22;2719;53.624;9.786;2023-11-18T05:51:33;5.80;99.90
5392;DHT22;2719;53.624;9.786;2023-11-18T05:54:00;5.90;99.90
5392;DHT22;2719;53.624;9.786;2023-11-18T05:56:27;5.90;99.90
5392;DHT22;2719;53.624;9.786;2023-11-18T05:58:53;5.90;99.90
5392;DHT22;2719;53.624;9.786;2023-11-18T06:01:20;5.90;99.90
5392;DHT22;2719;53.624;9.786;2023-11-18T06:03:47;5.90;99.90
5392;DHT22;2719;53.624;9.786;2023-11-18T06:06:15;5.90;99.90
5392;DHT22;2719;53.624;9.786;2023-11-18T06:08:44;5.90;99.90
5392;DHT22;2719;53.624;9.786;2023-11-18T06:11:12;5.90;99.90
5392;DHT22;2719;53.624;9.786;2023-11-18T06:13:43;5.70;99.90
5392;DHT22;2719;53.624;9.786;2023-11-18T06:16:12;5.60;99.90
5392;DHT22;2719;53.624;9.786;2023-11-18T06:18:41;5.60;99.90
5392;DHT22;2719;53.624;9.786;2023-11-18T06:21:11;5.60;99.90
5392;DHT22;2719;53.624;9.786;2023-11-18T06:23:38;5.70;99.90
5392;DHT22;2719;53.624;9.786;2023-11-18T06:26:07;5.70;99.90
5392;DHT22;2719;53.624;9.786;2023-11-18T06:28:35;5.70;99.90
5392;DHT22;2719;53.624;9.786;2023-11-18T06:31:02;5.80;99.90
5392;DHT22;2719;53.624;9.786;2023-11-18T06:33:29;5.80;99.90
5392;DHT22;2719;53.624;9.786;2023-11-18T06:35:56;5.80;99.90
5392;DHT22;2719;53.624;9.786;2023-11-18T06:38:22;5.80;99.90
5392;DHT22;2719;53.624;9.786;2023-11-18T06:40:50;5.80;99.90
5392;DHT22;2719;53.624;9.786;2023-11-18T06:43:19;5.80;99.90
5392;DHT22;2719;53.624;9.786;2023-11-18T06:45:46;5.90;99.90
5392;DHT22;2719;53.624;9.786;2023-11-18T06:48:14;5.80;99.90
5392;DHT22;2719;53.624;9.786;2023-11-18T06:50:41;5.80;99.90
5392;DHT22;2719;53.624;9.786;2023-11-18T06:53:09;5.90;99.90
5392;DHT22;2719;53.624;9.786;2023-11-18T06:55:36;5.90;99.90
5392;DHT22;2719;53.624;9.786;2023-11-18T06:58:03;5.90;99.90
5392;DHT22;2719;53.624;9.786;2023-11-18T07:00:31;5.80;99.90
5392;DHT22;2719;53.624;9.786;2023-11-18T07:02:58;5.70;99.90
5392;DHT22;2719;53.624;9.786;2023-11-18T07:05:26;5.50;99.90
5392;DHT22;2719;53.624;9.786;2023-11-18T07:07:54;5.50;99.90
5392;DHT22;2719;53.624;9.786;2023-11-18T07:10:20;5.50;99.90
5392;DHT22;2719;53.624;9.786;2023-11-18T07:12:47;5.40;99.90
5392;DHT22;2719;53.624;9.786;2023-11-18T07:15:14;5.50;99.90
5392;DHT22;2719;53.624;9.786;2023-11-18T07:17:42;5.50;99.90
5392;DHT22;2719;53.624;9.786;2023-11-18T07:20:10;5.40;99.90
5392;DHT22;2719;53.624;9.786;2023-11-18T07:22:39;5.40;99.90
5392;DHT22;2719;53.624;9.786;2023-11-18T07:25:06;5.50;99.90
5392;DHT22;2719;53.624;9.786;2023-11-18T07:27:34;5.50;99.90
5392;DHT22;2719;53.624;9.786;2023-11-18T07:30:01;5.50;99.90
5392;DHT22;2719;53.624;9.786;2023-11-18T07:32:28;5.50;99.90
5392;DHT22;2719;53.624;9.786;2023-11-18T07:34:57;5.50;99.90
5392;DHT22;2719;53.624;9.786;2023-11-18T07:37:24;5.40;99.90
5392;DHT22;2719;53.624;9.786;2023-11-18T07:39:52;5.40;99.90
5392;DHT22;2719;53.624;9.786;2023-11-18T07:42:20;5.20;99.90
5392;DHT22;2719;53.624;9.786;2023-11-18T07:44:47;5.10;99.90
5392;DHT22;2719;53.624;9.786;2023-11-18T07:47:14;5.10;99.90
5392;DHT22;2719;53.624;9.786;2023-11-18T07:49:41;5.10;99.90
5392;DHT22;2719;53.624;9.786;2023-11-18T07:52:09;5.20;99.90
5392;DHT22;2719;53.624;9.786;2023-11-18T07:54:36;5.30;99.90
5392;DHT22;2719;53.624;9.786;2023-11-18T07:57:04;5.30;99.90
5392;DHT22;2719;53.624;9.786;2023-11-18T07:59:31;5.40;99.90
5392;DHT22;2719;53.624;9.786;2023-11-18T08:01:57;5.40;99.90
5392;DHT22;2719;53.624;9.786;2023-11-18T08:04:26;5.50;99.90
5392;DHT22;2719;53.624;9.786;2023-11-18T08:06:53;5.60;99.90
5392;DHT22;2719;53.624;9.786;2023-11-18T08:09:22;5.60;99.90
5392;DHT22;2719;53.624;9.786;2023-11-18T08:11:51;5.60;99.90
5392;DHT22;2719;53.624;9.786;2023-11-18T08:14:20;5.70;99.90
5392;DHT22;2719;53.624;9.786;2023-11-18T08:16:47;5.70;99.90
5392;DHT22;2719;53.624;9.786;2023-11-18T08:19:15;5.70;99.90
5392;DHT22;2719;53.624;9.786;2023-11-18T08:21:41;5.80;99.90
5392;DHT22;2719;53.624;9.786;2023-11-18T08:24:08;5.80;99.90
5392;DHT22;2719;53.624;9.786;2023-11-18T08:26:36;5.80;99.90
5392;DHT22;2719;53.624;9.786;2023-11-18T08:29:03;5.80;99.90
5392;DHT22;2719;53.624;9.786;2023-11-18T08:31:30;5.80;99.90
5392;DHT22;2719;53.624;9.786;2023-11-18T08:33:58;5.80;99.90
5392;DHT22;2719;53.624;9.786;2023-11-18T08:36:25;5.90;99.90
5392;DHT22;2719;53.624;9.786;2023-11-18T08:38:52;5.90;99.90
5392;DHT22;2719;53.624;9.786;2023-11-18T08:41:21;5.80;99.90
5392;DHT22;2719;53.624;9.786;2023-11-18T08:43:49;5.80;99.90
5392;DHT22;2719;53.624;9.786;2023-11-18T08:46:16;5.80;99.90
5392;DHT22;2719;53.624;9.786;2023-11-18T08:48:42;5.80;99.90
5392;DHT22;2719;53.624;9.786;2023-11-18T08:51:10;5.90;99.90
5392;DHT22;2719;53.624;9.786;2023-11-18T08:53:38;5.90;99.90
5392;DHT22;2719;53.624;9.786;2023-11-18T08:56:08;6.00;99.90
5392;DHT22;2719;53.624;9.786;2023-11-18T08:58:40;6.00;99.90
5392;DHT22;2719;53.624;9.786;2023-11-18T09:01:08;5.90;99.90
5392;DHT22;2719;53.624;9.786;2023-11-18T09:03:40;5.80;99.90
5392;DHT22;2719;53.624;9.786;2023-11-18T09:06:09;5.90;99.90
5392;DHT22;2719;53.624;9.786;2023-11-18T09:08:43;6.00;99.90
5392;DHT22;2719;53.624;9.786;2023-11-18T09:11:12;5.90;99.90
5392;DHT22;2719;53.624;9.786;2023-11-18T09:13:41;6.00;99.90
5392;DHT22;2719;53.624;9.786;2023-11-18T09:16:11;6.00;99.90
5392;DHT22;2719;53.624;9.786;2023-11-18T09:18:39;6.00;99.90
5392;DHT22;2719;53.624;9.786;2023-11-18T09:21:07;6.00;99.90
5392;DHT22;2719;53.624;9.786;2023-11-18T09:23:40;6.10;99.90
5392;DHT22;2719;53.624;9.786;2023-11-18T09:26:07;6.20;99.90
5392;DHT22;2719;53.624;9.786;2023-11-18T09:28:34;6.20;99.90
5392;DHT22;2719;53.624;9.786;2023-11-18T09:31:02;6.30;99.90
5392;DHT22;2719;53.624;9.786;2023-11-18T09:33:32;6.30;99.90
5392;DHT22;2719;53.624;9.786;2023-11-18T09:35:59;6.30;99.90
5392;DHT22;2719;53.624;9.786;2023-11-18T09:38:27;6.40;99.90
5392;DHT22;2719;53.624;9.786;2023-11-18T09:40:54;6.50;99.90
5392;DHT22;2719;53.624;9.786;2023-11-18T09:43:21;6.60;99.90
5392;DHT22;2719;53.624;9.786;2023-11-18T09:45:54;6.60;99.90
5392;DHT22;2719;53.624;9.786;2023-11-18T09:48:21;6.70;99.90
5392;DHT22;2719;53.624;9.786;2023-11-18T09:50:52;6.70;99.90
5392;DHT22;2719;53.624;9.786;2023-11-18T09:53:20;6.70;99.90
5392;DHT22;2719;53.624;9.786;2023-11-18T09:55:56;6.90;99.90
5392;DHT22;2719;53.624;9.786;2023-11-18T09:58:34;7.00;99.90
5392;DHT22;2719;53.624;9.786;2023-11-18T10:01:06;7.00;99.90
5392;DHT22;2719;53.624;9.786;2023-11-18T10:03:40;7.10;99.90
5392;DHT22;2719;53.624;9.786;2023-11-18T10:06:09;7.20;99.90
5392;DHT22;2719;53.624;9.786;2023-11-18T10:08:37;7.40;99.90
5392;DHT22;2719;53.624;9.786;2023-11-18T10:11:05;7.30;99.90
5392;DHT22;2719;53.624;9.786;2023-11-18T10:13:34;7.40;99.90
5392;DHT22;2719;53.624;9.786;2023-11-18T10:16:06;7.40;99.90
5392;DHT22;2719;53.624;9.786;2023-11-18T10:18:33;7.50;99.90
5392;DHT22;2719;53.624;9.786;2023-11-18T10:21:03;7.60;99.90
5392;DHT22;2719;53.624;9.786;2023-11-18T10:23:34;7.60;99.90
5392;DHT22;2719;53.624;9.786;2023-11-18T10:26:03;7.70;99.90
5392;DHT22;2719;53.624;9.786;2023-11-18T10:28:31;7.70;99.90
5392;DHT22;2719;53.624;9.786;2023-11-18T10:31:00;7.80;99.90
5392;DHT22;2719;53.624;9.786;2023-11-18T10:33:30;7.80;99.90
5392;DHT22;2719;53.624;9.786;2023-11-18T10:35:56;7.80;99.90
5392;DHT22;2719;53.624;9.786;2023-11-18T10:38:24;7.90;99.90
5392;DHT22;2719;53.624;9.786;2023-11-18T10:40:57;8.00;99.90
5392;DHT22;2719;53.624;9.786;2023-11-18T10:43:26;8.10;99.90
5392;DHT22;2719;53.624;9.786;2023-11-18T10:46:04;8.00;99.90
5392;DHT22;2719;53.624;9.786;2023-11-18T10:48:38;8.10;99.90
5392;DHT22;2719;53.624;9.786;2023-11-18T10:51:06;8.10;99.90
5392;DHT22;2719;53.624;9.786;2023-11-18T10:53:33;8.20;99.90
5392;DHT22;2719;53.624;9.786;2023-11-18T10:56:04;8.20;99.90
5392;DHT22;2719;53.624;9.786;2023-11-18T10:58:35;8.20;99.90
5392;DHT22;2719;53.624;9.786;2023-11-18T11:01:03;8.10;99.90
5392;DHT22;2719;53.624;9.786;2023-11-18T11:03:30;8.10;99.90
5392;DHT22;2719;53.624;9.786;2023-11-18T11:06:14;8.10;99.90
5392;DHT22;2719;53.624;9.786;2023-11-18T11:08:42;8.10;99.90
5392;DHT22;2719;53.624;9.786;2023-11-18T11:11:11;8.00;99.90
5392;DHT22;2719;53.624;9.786;2023-11-18T11:13:42;8.10;99.90
5392;DHT22;2719;53.624;9.786;2023-11-18T11:16:11;8.10;99.90
5392;DHT22;2719;53.624;9.786;2023-11-18T11:18:40;8.10;99.90
5392;DHT22;2719;53.624;9.786;2023-11-18T11:21:14;8.10;99.90
5392;DHT22;2719;53.624;9.786;2023-11-18T11:23:49;8.20;99.90
5392;DHT22;2719;53.624;9.786;2023-11-18T11:26:26;8.20;99.90
5392;DHT22;2719;53.624;9.786;2023-11-18T11:29:04;8.10;99.90
5392;DHT22;2719;53.624;9.786;2023-11-18T11:31:34;8.10;99.90
5392;DHT22;2719;53.624;9.786;2023-11-18T11:34:04;8.10;99.90
5392;DHT22;2719;53.624;9.786;2023-11-18T11:36:36;8.00;99.90
5392;DHT22;2719;53.624;9.786;2023-11-18T11:39:06;8.10;99.90
5392;DHT22;2719;53.624;9.786;2023-11-18T11:41:37;8.20;99.90
5392;DHT22;2719;53.624;9.786;2023-11-18T11:44:05;8.20;99.90
5392;DHT22;2719;53.624;9.786;2023-11-18T11:46:34;8.20;99.90
5392;DHT22;2719;53.624;9.786;2023-11-18T11:49:03;8.30;99.90
5392;DHT22;2719;53.624;9.786;2023-11-18T11:51:44;8.30;99.90
5392;DHT22;2719;53.624;9.786;2023-11-18T11:54:19;8.30;99.90
5392;DHT22;2719;53.624;9.786;2023-11-18T11:56:49;8.10;99.90
5392;DHT22;2719;53.624;9.786;2023-11-18T11:59:35;8.20;99.90
5392;DHT22;2719;53.624;9.786;2023-11-18T12:02:03;8.10;99.90
5392;DHT22;2719;53.624;9.786;2023-11-18T12:04:33;8.00;99.90
5392;DHT22;2719;53.624;9.786;2023-11-18T12:07:04;8.00;99.90
5392;DHT22;2719;53.624;9.786;2023-11-18T12:09:31;7.90;99.90
5392;DHT22;2719;53.624;9.786;2023-11-18T12:12:05;7.90;99.90
5392;DHT22;2719;53.624;9.786;2023-11-18T12:14:49;7.90;99.90
5392;DHT22;2719;53.624;9.786;2023-11-18T12:17:16;7.90;99.90
5392;DHT22;2719;53.624;9.786;2023-11-18T12:19:48;7.90;99.90
5392;DHT22;2719;53.624;9.786;2023-11-18T12:22:17;7.90;99.90
5392;DHT22;2719;53.624;9.786;2023-11-18T12:24:45;7.70;99.90
5392;DHT22;2719;53.624;9.786;2023-11-18T12:27:43;7.80;99.90
5392;DHT22;2719;53.624;9.786;2023-11-18T12:30:37;7.80;99.90
5392;DHT22;2719;53.624;9.786;2023-11-18T12:33:07;7.70;99.90
5392;DHT22;2719;53.624;9.786;2023-11-18T12:35:42;7.70;99.90
5392;DHT22;2719;53.624;9.786;2023-11-18T12:38:31;7.70;99.90
5392;DHT22;2719;53.624;9.786;2023-11-18T12:41:19;7.70;99.90
5392;DHT22;2719;53.624;9.786;2023-11-18T12:44:07;7.60;99.90
5392;DHT22;2719;53.624;9.786;2023-11-18T12:46:48;7.60;99.90
5392;DHT22;2719;53.624;9.786;2023-11-18T12:49:17;7.60;99.90
5392;DHT22;2719;53.624;9.786;2023-11-18T12:51:49;7.70;99.90
5392;DHT22;2719;53.624;9.786;2023-11-18T12:54:17;7.60;99.90
5392;DHT22;2719;53.624;9.786;2023-11-18T12:56:45;7.70;99.90
5392;DHT22;2719;53.624;9.786;2023-11-18T12:59:15;7.70;99.90
5392;DHT22;2719;53.624;9.786;2023-11-18T13:01:44;7.60;99.90
5392;DHT22;2719;53.624;9.786;2023-11-18T13:04:16;7.70;99.90
5392;DHT22;2719;53.624;9.786;2023-11-18T13:06:43;7.70;99.90
5392;DHT22;2719;53.624;9.786;2023-11-18T13:09:09;7.60;99.90
5392;DHT22;2719;53.624;9.786;2023-11-18T13:11:36;7.60;99.90
5392;DHT22;2719;53.624;9.786;2023-11-18T13:14:08;7.50;99.90
5392;DHT22;2719;53.624;9.786;2023-11-18T13:16:36;7.50;99.90
5392;DHT22;2719;53.624;9.786;2023-11-18T13:19:02;7.50;99.90
5392;DHT22;2719;53.624;9.786;2023-11-18T13:21:30;7.40;99.90
5392;DHT22;2719;53.624;9.786;2023-11-18T13:24:02;7.40;99.90
5392;DHT22;2719;53.624;9.786;2023-11-18T13:26:30;7.50;99.90
5392;DHT22;2719;53.624;9.786;2023-11-18T13:28:59;7.50;99.90
5392;DHT22;2719;53.624;9.786;2023-11-18T13:31:27;7.60;99.90
5392;DHT22;2719;53.624;9.786;2023-11-18T13:33:55;7.60;99.90
5392;DHT22;2719;53.624;9.786;2023-11-18T13:36:23;7.60;99.90
5392;DHT22;2719;53.624;9.786;2023-11-18T13:38:50;7.50;99.90
5392;DHT22;2719;53.624;9.786;2023-11-18T13:41:28;7.60;99.90
5392;DHT22;2719;53.624;9.786;2023-11-18T13:43:57;7.60;99.90
5392;DHT22;2719;53.624;9.786;2023-11-18T13:46:24;7.60;99.90
5392;DHT22;2719;53.624;9.786;2023-11-18T13:48:52;7.60;99.90
5392;DHT22;2719;53.624;9.786;2023-11-18T13:51:21;7.60;99.90
5392;DHT22;2719;53.624;9.786;2023-11-18T13:53:48;7.50;99.90
5392;DHT22;2719;53.624;9.786;2023-11-18T13:56:15;7.40;99.90
5392;DHT22;2719;53.624;9.786;2023-11-18T13:58:45;7.50;99.90
5392;DHT22;2719;53.624;9.786;2023-11-18T14:01:13;7.50;99.90
5392;DHT22;2719;53.624;9.786;2023-11-18T14:03:40;7.30;99.90
5392;DHT22;2719;53.624;9.786;2023-11-18T14:06:09;7.40;99.90
5392;DHT22;2719;53.624;9.786;2023-11-18T14:08:38;7.30;99.90
5392;DHT22;2719;53.624;9.786;2023-11-18T14:11:05;7.40;99.90
5392;DHT22;2719;53.624;9.786;2023-11-18T14:13:35;7.40;99.90
5392;DHT22;2719;53.624;9.786;2023-11-18T14:16:03;7.30;99.90
5392;DHT22;2719;53.624;9.786;2023-11-18T14:18:35;7.20;99.90
5392;DHT22;2719;53.624;9.786;2023-11-18T14:21:03;7.20;99.90
5392;DHT22;2719;53.624;9.786;2023-11-18T14:23:31;7.20;99.90
5392;DHT22;2719;53.624;9.786;2023-11-18T14:25:59;7.30;99.90
5392;DHT22;2719;53.624;9.786;2023-11-18T14:28:25;7.30;99.90
5392;DHT22;2719;53.624;9.786;2023-11-18T14:30:53;7.20;99.90
5392;DHT22;2719;53.624;9.786;2023-11-18T14:33:19;7.20;99.90
5392;DHT22;2719;53.624;9.786;2023-11-18T14:35:46;7.20;99.90
5392;DHT22;2719;53.624;9.786;2023-11-18T14:38:13;7.20;99.90
5392;DHT22;2719;53.624;9.786;2023-11-18T14:40:40;7.10;99.90
5392;DHT22;2719;53.624;9.786;2023-11-18T14:43:08;7.10;99.90
5392;DHT22;2719;53.624;9.786;2023-11-18T14:45:35;7.20;99.90
5392;DHT22;2719;53.624;9.786;2023-11-18T14:48:03;7.20;99.90
5392;DHT22;2719;53.624;9.786;2023-11-18T14:50:29;7.20;99.90
5392;DHT22;2719;53.624;9.786;2023-11-18T14:52:57;7.10;99.90
5392;DHT22;2719;53.624;9.786;2023-11-18T14:55:25;7.10;99.90
5392;DHT22;2719;53.624;9.786;2023-11-18T14:57:52;7.00;99.90
5392;DHT22;2719;53.624;9.786;2023-11-18T15:00:20;7.10;99.90
5392;DHT22;2719;53.624;9.786;2023-11-18T15:02:51;7.10;99.90
5392;DHT22;2719;53.624;9.786;2023-11-18T15:05:19;6.90;99.90
5392;DHT22;2719;53.624;9.786;2023-11-18T15:07:46;6.90;99.90
5392;DHT22;2719;53.624;9.786;2023-11-18T15:10:16;6.90;99.90
5392;DHT22;2719;53.624;9.786;2023-11-18T15:12:47;6.80;99.90
5392;DHT22;2719;53.624;9.786;2023-11-18T15:15:14;6.80;99.90
5392;DHT22;2719;53.624;9.786;2023-11-18T15:17:45;6.70;99.90
5392;DHT22;2719;53.624;9.786;2023-11-18T15:20:14;6.70;99.90
5392;DHT22;2719;53.624;9.786;2023-11-18T15:22:41;6.70;99.90
5392;DHT22;2719;53.624;9.786;2023-11-18T15:25:10;6.70;99.90
5392;DHT22;2719;53.624;9.786;2023-11-18T15:27:38;6.70;99.90
5392;DHT22;2719;53.624;9.786;2023-11-18T15:30:06;6.70;99.90
5392;DHT22;2719;53.624;9.786;2023-11-18T15:32:35;6.90;99.90
5392;DHT22;2719;53.624;9.786;2023-11-18T15:35:04;6.80;99.90
5392;DHT22;2719;53.624;9.786;2023-11-18T15:37:34;6.70;99.90
5392;DHT22;2719;53.624;9.786;2023-11-18T15:40:00;6.70;99.90
5392;DHT22;2719;53.624;9.786;2023-11-18T15:42:34;6.80;99.90
5392;DHT22;2719;53.624;9.786;2023-11-18T15:45:02;6.80;99.90
5392;DHT22;2719;53.624;9.786;2023-11-18T15:47:28;6.80;99.90
5392;DHT22;2719;53.624;9.786;2023-11-18T15:49:55;6.80;99.90
5392;DHT22;2719;53.624;9.786;2023-11-18T15:52:24;6.90;99.90
5392;DHT22;2719;53.624;9.786;2023-11-18T15:54:51;6.90;99.90
5392;DHT22;2719;53.624;9.786;2023-11-18T15:57:17;6.90;99.90
5392;DHT22;2719;53.624;9.786;2023-11-18T15:59:46;6.90;99.90
5392;DHT22;2719;53.624;9.786;2023-11-18T16:02:13;6.90;99.90
5392;DHT22;2719;53.624;9.786;2023-11-18T16:04:41;6.80;99.90
5392;DHT22;2719;53.624;9.786;2023-11-18T16:07:08;6.90;99.90
5392;DHT22;2719;53.624;9.786;2023-11-18T16:09:36;6.90;99.90
5392;DHT22;2719;53.624;9.786;2023-11-18T16:12:03;6.80;99.90
5392;DHT22;2719;53.624;9.786;2023-11-18T16:14:30;6.80;99.90
5392;DHT22;2719;53.624;9.786;2023-11-18T16:16:56;6.80;99.90
5392;DHT22;2719;53.624;9.786;2023-11-18T16:19:23;6.90;99.90
5392;DHT22;2719;53.624;9.786;2023-11-18T16:21:50;6.90;99.90
5392;DHT22;2719;53.624;9.786;2023-11-18T16:24:18;6.90;99.90
5392;DHT22;2719;53.624;9.786;2023-11-18T16:26:46;6.90;99.90